sensor_id;sensor_type;location;lat;lon;timestamp;P1;durP1;ratioP1;P2;durP2;ratioP2
51758;SDS011;66684;47.568;18.734;2023-06-22T00:02:14;16.20;;;4.70;;
51758;SDS011;66684;47.568;18.734;2023-06-22T00:04:39;9.60;;;3.67;;
51758;SDS011;66684;47.568;18.734;2023-06-22T00:07:05;9.32;;;3.83;;
51758;SDS011;66684;47.568;18.734;2023-06-22T00:09:31;16.70;;;4.32;;
51758;SDS011;66684;47.568;18.734;2023-06-22T00:11:58;11.95;;;4.65;;
51758;SDS011;66684;47.568;18.734;2023-06-22T00:14:23;12.40;;;4.25;;
51758;SDS011;66684;47.568;18.734;2023-06-22T00:16:49;9.27;;;3.97;;
51758;SDS011;66684;47.568;18.734;2023-06-22T00:19:21;19.67;;;4.85;;
51758;SDS011;66684;47.568;18.734;2023-06-22T00:21:47;11.88;;;3.92;;
51758;SDS011;66684;47.568;18.734;2023-06-22T00:24:20;13.95;;;4.80;;
51758;SDS011;66684;47.568;18.734;2023-06-22T00:26:49;11.23;;;3.65;;
51758;SDS011;66684;47.568;18.734;2023-06-22T00:29:15;16.00;;;3.85;;
51758;SDS011;66684;47.568;18.734;2023-06-22T00:31:42;12.15;;;4.00;;
51758;SDS011;66684;47.568;18.734;2023-06-22T00:34:08;10.63;;;4.25;;
51758;SDS011;66684;47.568;18.734;2023-06-22T00:36:34;8.98;;;3.85;;
51758;SDS011;66684;47.568;18.734;2023-06-22T00:39:01;13.43;;;4.40;;
51758;SDS011;66684;47.568;18.734;2023-06-22T00:41:27;10.55;;;3.47;;
51758;SDS011;66684;47.568;18.734;2023-06-22T00:43:56;12.57;;;4.12;;
51758;SDS011;66684;47.568;18.734;2023-06-22T00:46:22;12.70;;;4.07;;
51758;SDS011;66684;47.568;18.734;2023-06-22T00:48:48;11.52;;;3.75;;
51758;SDS011;66684;47.568;18.734;2023-06-22T00:51:15;12.23;;;4.12;;
51758;SDS011;66684;47.568;18.734;2023-06-22T00:53:41;16.02;;;4.07;;
51758;SDS011;66684;47.568;18.734;2023-06-22T00:56:08;16.40;;;4.50;;
51758;SDS011;66684;47.568;18.734;2023-06-22T00:58:38;10.43;;;3.95;;
51758;SDS011;66684;47.568;18.734;2023-06-22T01:01:07;10.73;;;4.07;;
51758;SDS011;66684;47.568;18.734;2023-06-22T01:03:33;14.10;;;4.22;;
51758;SDS011;66684;47.568;18.734;2023-06-22T01:06:02;10.30;;;4.20;;
51758;SDS011;66684;47.568;18.734;2023-06-22T01:08:41;16.80;;;4.90;;
51758;SDS011;66684;47.568;18.734;2023-06-22T01:11:20;8.90;;;3.70;;
51758;SDS011;66684;47.568;18.734;2023-06-22T01:16:47;11.15;;;4.20;;
51758;SDS011;66684;47.568;18.734;2023-06-22T01:22:18;11.43;;;5.12;;
51758;SDS011;66684;47.568;18.734;2023-06-22T01:30:45;13.70;;;4.53;;
51758;SDS011;66684;47.568;18.734;2023-06-22T01:33:14;12.40;;;5.05;;
51758;SDS011;66684;47.568;18.734;2023-06-22T01:35:41;13.75;;;5.12;;
51758;SDS011;66684;47.568;18.734;2023-06-22T01:38:08;12.90;;;5.22;;
51758;SDS011;66684;47.568;18.734;2023-06-22T01:40:35;15.85;;;5.03;;
51758;SDS011;66684;47.568;18.734;2023-06-22T01:43:02;15.70;;;4.90;;
51758;SDS011;66684;47.568;18.734;2023-06-22T01:45:29;16.40;;;4.75;;
51758;SDS011;66684;47.568;18.734;2023-06-22T01:47:55;11.25;;;4.78;;
51758;SDS011;66684;47.568;18.734;2023-06-22T01:50:22;12.50;;;4.60;;
51758;SDS011;66684;47.568;18.734;2023-06-22T01:52:48;12.30;;;4.47;;
51758;SDS011;66684;47.568;18.734;2023-06-22T01:55:14;12.50;;;4.72;;
51758;SDS011;66684;47.568;18.734;2023-06-22T01:57:40;8.50;;;4.35;;
51758;SDS011;66684;47.568;18.734;2023-06-22T02:00:17;9.45;;;4.00;;
51758;SDS011;66684;47.568;18.734;2023-06-22T02:05:25;9.48;;;4.78;;
51758;SDS011;66684;47.568;18.734;2023-06-22T02:08:07;7.05;;;4.55;;
51758;SDS011;66684;47.568;18.734;2023-06-22T02:10:37;12.55;;;4.12;;
51758;SDS011;66684;47.568;18.734;2023-06-22T02:13:06;9.43;;;4.03;;
51758;SDS011;66684;47.568;18.734;2023-06-22T02:15:36;13.48;;;5.30;;
51758;SDS011;66684;47.568;18.734;2023-06-22T02:18:02;7.85;;;4.05;;
51758;SDS011;66684;47.568;18.734;2023-06-22T02:20:29;12.13;;;4.80;;
51758;SDS011;66684;47.568;18.734;2023-06-22T02:22:55;11.80;;;4.22;;
51758;SDS011;66684;47.568;18.734;2023-06-22T02:25:21;8.80;;;4.20;;
51758;SDS011;66684;47.568;18.734;2023-06-22T02:27:47;12.45;;;4.62;;
51758;SDS011;66684;47.568;18.734;2023-06-22T02:30:13;10.70;;;4.68;;
51758;SDS011;66684;47.568;18.734;2023-06-22T02:32:41;13.02;;;4.20;;
51758;SDS011;66684;47.568;18.734;2023-06-22T02:35:08;14.02;;;4.55;;
51758;SDS011;66684;47.568;18.734;2023-06-22T02:37:35;10.50;;;4.12;;
51758;SDS011;66684;47.568;18.734;2023-06-22T02:40:05;15.45;;;4.37;;
51758;SDS011;66684;47.568;18.734;2023-06-22T02:42:33;10.63;;;4.05;;
51758;SDS011;66684;47.568;18.734;2023-06-22T02:44:59;14.55;;;5.35;;
51758;SDS011;66684;47.568;18.734;2023-06-22T02:47:25;16.23;;;4.95;;
51758;SDS011;66684;47.568;18.734;2023-06-22T02:49:58;10.25;;;4.55;;
51758;SDS011;66684;47.568;18.734;2023-06-22T02:52:24;11.63;;;4.28;;
51758;SDS011;66684;47.568;18.734;2023-06-22T02:54:50;14.23;;;4.32;;
51758;SDS011;66684;47.568;18.734;2023-06-22T02:57:16;11.98;;;4.10;;
51758;SDS011;66684;47.568;18.734;2023-06-22T02:59:42;9.52;;;3.78;;
51758;SDS011;66684;47.568;18.734;2023-06-22T03:02:08;10.98;;;3.92;;
51758;SDS011;66684;47.568;18.734;2023-06-22T03:04:37;9.80;;;4.57;;
51758;SDS011;66684;47.568;18.734;2023-06-22T03:07:03;5.75;;;3.65;;
51758;SDS011;66684;47.568;18.734;2023-06-22T03:09:30;8.73;;;3.75;;
51758;SDS011;66684;47.568;18.734;2023-06-22T03:11:56;11.32;;;4.28;;
51758;SDS011;66684;47.568;18.734;2023-06-22T03:14:22;12.85;;;4.47;;
51758;SDS011;66684;47.568;18.734;2023-06-22T03:16:48;11.75;;;4.30;;
51758;SDS011;66684;47.568;18.734;2023-06-22T03:19:13;8.30;;;3.42;;
51758;SDS011;66684;47.568;18.734;2023-06-22T03:21:39;10.32;;;4.15;;
51758;SDS011;66684;47.568;18.734;2023-06-22T03:24:06;11.90;;;4.43;;
51758;SDS011;66684;47.568;18.734;2023-06-22T03:26:33;12.37;;;4.45;;
51758;SDS011;66684;47.568;18.734;2023-06-22T03:29:00;11.80;;;4.57;;
51758;SDS011;66684;47.568;18.734;2023-06-22T03:31:26;15.63;;;5.37;;
51758;SDS011;66684;47.568;18.734;2023-06-22T03:33:52;15.02;;;5.12;;
51758;SDS011;66684;47.568;18.734;2023-06-22T03:36:18;15.60;;;4.60;;
51758;SDS011;66684;47.568;18.734;2023-06-22T03:38:48;13.23;;;4.95;;
51758;SDS011;66684;47.568;18.734;2023-06-22T03:41:15;11.88;;;5.20;;
51758;SDS011;66684;47.568;18.734;2023-06-22T03:43:41;15.07;;;3.95;;
51758;SDS011;66684;47.568;18.734;2023-06-22T03:46:07;13.02;;;4.70;;
51758;SDS011;66684;47.568;18.734;2023-06-22T03:48:33;11.48;;;4.37;;
51758;SDS011;66684;47.568;18.734;2023-06-22T03:50:59;14.82;;;5.18;;
51758;SDS011;66684;47.568;18.734;2023-06-22T03:53:26;10.73;;;4.75;;
51758;SDS011;66684;47.568;18.734;2023-06-22T03:55:52;12.50;;;4.78;;
51758;SDS011;66684;47.568;18.734;2023-06-22T03:58:19;14.10;;;4.35;;
51758;SDS011;66684;47.568;18.734;2023-06-22T04:00:46;14.23;;;5.15;;
51758;SDS011;66684;47.568;18.734;2023-06-22T04:03:13;14.30;;;5.05;;
51758;SDS011;66684;47.568;18.734;2023-06-22T04:05:39;18.05;;;5.37;;
51758;SDS011;66684;47.568;18.734;2023-06-22T04:08:06;12.43;;;4.55;;
51758;SDS011;66684;47.568;18.734;2023-06-22T04:10:32;15.35;;;4.60;;
51758;SDS011;66684;47.568;18.734;2023-06-22T04:12:58;9.95;;;4.75;;
51758;SDS011;66684;47.568;18.734;2023-06-22T04:15:24;10.82;;;4.87;;
51758;SDS011;66684;47.568;18.734;2023-06-22T04:17:49;13.93;;;5.37;;
51758;SDS011;66684;47.568;18.734;2023-06-22T04:20:15;13.60;;;5.12;;
51758;SDS011;66684;47.568;18.734;2023-06-22T04:22:41;13.98;;;5.12;;
51758;SDS011;66684;47.568;18.734;2023-06-22T04:25:07;15.85;;;5.75;;
51758;SDS011;66684;47.568;18.734;2023-06-22T04:27:33;19.95;;;5.85;;
51758;SDS011;66684;47.568;18.734;2023-06-22T04:30:06;13.35;;;5.32;;
51758;SDS011;66684;47.568;18.734;2023-06-22T04:32:33;14.90;;;5.15;;
51758;SDS011;66684;47.568;18.734;2023-06-22T04:35:02;12.45;;;5.50;;
51758;SDS011;66684;47.568;18.734;2023-06-22T04:37:30;14.82;;;6.97;;
51758;SDS011;66684;47.568;18.734;2023-06-22T04:39:56;17.08;;;6.10;;
51758;SDS011;66684;47.568;18.734;2023-06-22T04:42:22;14.50;;;5.75;;
51758;SDS011;66684;47.568;18.734;2023-06-22T04:44:50;11.57;;;5.90;;
51758;SDS011;66684;47.568;18.734;2023-06-22T04:47:16;19.27;;;6.45;;
51758;SDS011;66684;47.568;18.734;2023-06-22T04:49:42;13.13;;;4.90;;
51758;SDS011;66684;47.568;18.734;2023-06-22T04:52:09;11.23;;;3.65;;
51758;SDS011;66684;47.568;18.734;2023-06-22T04:54:39;10.50;;;4.12;;
51758;SDS011;66684;47.568;18.734;2023-06-22T04:57:13;12.43;;;3.83;;
51758;SDS011;66684;47.568;18.734;2023-06-22T04:59:40;11.40;;;3.92;;
51758;SDS011;66684;47.568;18.734;2023-06-22T05:02:07;13.57;;;4.28;;
51758;SDS011;66684;47.568;18.734;2023-06-22T05:04:33;13.13;;;3.45;;
51758;SDS011;66684;47.568;18.734;2023-06-22T05:07:01;8.77;;;3.30;;
51758;SDS011;66684;47.568;18.734;2023-06-22T05:09:28;14.70;;;3.70;;
51758;SDS011;66684;47.568;18.734;2023-06-22T05:11:55;10.32;;;3.62;;
51758;SDS011;66684;47.568;18.734;2023-06-22T05:14:22;10.57;;;3.60;;
51758;SDS011;66684;47.568;18.734;2023-06-22T05:16:48;12.00;;;3.20;;
51758;SDS011;66684;47.568;18.734;2023-06-22T05:19:17;23.42;;;4.43;;
51758;SDS011;66684;47.568;18.734;2023-06-22T05:21:43;15.85;;;4.20;;
51758;SDS011;66684;47.568;18.734;2023-06-22T05:24:09;23.30;;;4.85;;
51758;SDS011;66684;47.568;18.734;2023-06-22T05:26:35;15.20;;;3.92;;
51758;SDS011;66684;47.568;18.734;2023-06-22T05:29:02;17.48;;;4.25;;
51758;SDS011;66684;47.568;18.734;2023-06-22T05:31:28;10.27;;;3.83;;
51758;SDS011;66684;47.568;18.734;2023-06-22T05:33:55;14.60;;;4.10;;
51758;SDS011;66684;47.568;18.734;2023-06-22T05:36:21;15.13;;;4.30;;
51758;SDS011;66684;47.568;18.734;2023-06-22T05:38:51;11.93;;;4.32;;
51758;SDS011;66684;47.568;18.734;2023-06-22T05:41:22;16.30;;;3.47;;
51758;SDS011;66684;47.568;18.734;2023-06-22T05:43:48;14.07;;;3.92;;
51758;SDS011;66684;47.568;18.734;2023-06-22T05:46:13;9.10;;;3.60;;
51758;SDS011;66684;47.568;18.734;2023-06-22T05:48:39;15.77;;;4.53;;
51758;SDS011;66684;47.568;18.734;2023-06-22T05:51:05;8.95;;;3.40;;
51758;SDS011;66684;47.568;18.734;2023-06-22T05:53:31;18.45;;;3.60;;
51758;SDS011;66684;47.568;18.734;2023-06-22T05:55:57;10.55;;;3.17;;
51758;SDS011;66684;47.568;18.734;2023-06-22T05:58:23;8.38;;;2.87;;
51758;SDS011;66684;47.568;18.734;2023-06-22T06:00:49;9.55;;;3.03;;
51758;SDS011;66684;47.568;18.734;2023-06-22T06:03:15;8.80;;;2.83;;
51758;SDS011;66684;47.568;18.734;2023-06-22T06:05:42;8.85;;;3.03;;
51758;SDS011;66684;47.568;18.734;2023-06-22T06:08:08;9.70;;;2.92;;
51758;SDS011;66684;47.568;18.734;2023-06-22T06:10:36;20.75;;;4.40;;
51758;SDS011;66684;47.568;18.734;2023-06-22T06:13:02;6.25;;;2.60;;
51758;SDS011;66684;47.568;18.734;2023-06-22T06:15:30;12.82;;;3.62;;
51758;SDS011;66684;47.568;18.734;2023-06-22T06:17:56;13.75;;;5.37;;
51758;SDS011;66684;47.568;18.734;2023-06-22T06:20:23;12.05;;;5.45;;
51758;SDS011;66684;47.568;18.734;2023-06-22T06:22:50;14.38;;;6.07;;
51758;SDS011;66684;47.568;18.734;2023-06-22T06:25:16;12.88;;;5.57;;
51758;SDS011;66684;47.568;18.734;2023-06-22T06:27:44;27.60;;;6.00;;
51758;SDS011;66684;47.568;18.734;2023-06-22T06:30:11;14.10;;;4.75;;
51758;SDS011;66684;47.568;18.734;2023-06-22T06:32:38;30.33;;;5.28;;
51758;SDS011;66684;47.568;18.734;2023-06-22T06:35:06;15.30;;;3.92;;
51758;SDS011;66684;47.568;18.734;2023-06-22T06:37:35;10.13;;;3.50;;
51758;SDS011;66684;47.568;18.734;2023-06-22T06:40:02;22.77;;;4.22;;
51758;SDS011;66684;47.568;18.734;2023-06-22T06:42:39;31.85;;;5.62;;
51758;SDS011;66684;47.568;18.734;2023-06-22T06:45:07;45.70;;;6.10;;
51758;SDS011;66684;47.568;18.734;2023-06-22T06:47:34;73.68;;;8.02;;
51758;SDS011;66684;47.568;18.734;2023-06-22T06:50:00;12.85;;;3.83;;
51758;SDS011;66684;47.568;18.734;2023-06-22T06:52:25;31.58;;;4.75;;
51758;SDS011;66684;47.568;18.734;2023-06-22T06:54:52;37.35;;;5.20;;
51758;SDS011;66684;47.568;18.734;2023-06-22T06:57:18;12.13;;;3.65;;
51758;SDS011;66684;47.568;18.734;2023-06-22T06:59:45;14.87;;;3.50;;
51758;SDS011;66684;47.568;18.734;2023-06-22T07:02:11;17.40;;;4.00;;
51758;SDS011;66684;47.568;18.734;2023-06-22T07:04:37;19.95;;;3.62;;
51758;SDS011;66684;47.568;18.734;2023-06-22T07:07:03;24.95;;;5.12;;
51758;SDS011;66684;47.568;18.734;2023-06-22T07:09:30;14.82;;;3.67;;
51758;SDS011;66684;47.568;18.734;2023-06-22T07:11:56;23.30;;;4.50;;
51758;SDS011;66684;47.568;18.734;2023-06-22T07:14:22;12.10;;;3.45;;
51758;SDS011;66684;47.568;18.734;2023-06-22T07:16:50;14.82;;;3.90;;
51758;SDS011;66684;47.568;18.734;2023-06-22T07:19:16;72.45;;;8.25;;
51758;SDS011;66684;47.568;18.734;2023-06-22T07:21:49;10.30;;;3.15;;
51758;SDS011;66684;47.568;18.734;2023-06-22T07:24:15;30.40;;;4.97;;
51758;SDS011;66684;47.568;18.734;2023-06-22T07:26:41;86.15;;;8.20;;
51758;SDS011;66684;47.568;18.734;2023-06-22T07:29:11;23.10;;;3.75;;
51758;SDS011;66684;47.568;18.734;2023-06-22T07:31:37;11.45;;;3.10;;
51758;SDS011;66684;47.568;18.734;2023-06-22T07:34:05;17.83;;;3.37;;
51758;SDS011;66684;47.568;18.734;2023-06-22T07:36:31;10.90;;;3.50;;
51758;SDS011;66684;47.568;18.734;2023-06-22T07:38:57;13.30;;;3.72;;
51758;SDS011;66684;47.568;18.734;2023-06-22T07:41:23;11.48;;;3.35;;
51758;SDS011;66684;47.568;18.734;2023-06-22T07:43:49;13.48;;;3.55;;
51758;SDS011;66684;47.568;18.734;2023-06-22T07:46:15;12.98;;;3.42;;
51758;SDS011;66684;47.568;18.734;2023-06-22T07:48:41;7.43;;;2.92;;
51758;SDS011;66684;47.568;18.734;2023-06-22T07:51:09;9.27;;;3.12;;
51758;SDS011;66684;47.568;18.734;2023-06-22T07:53:39;17.45;;;3.60;;
51758;SDS011;66684;47.568;18.734;2023-06-22T07:56:06;11.15;;;3.03;;
51758;SDS011;66684;47.568;18.734;2023-06-22T07:58:34;11.05;;;3.15;;
51758;SDS011;66684;47.568;18.734;2023-06-22T08:01:01;8.40;;;3.03;;
51758;SDS011;66684;47.568;18.734;2023-06-22T08:03:27;9.45;;;2.95;;
51758;SDS011;66684;47.568;18.734;2023-06-22T08:05:53;65.68;;;8.00;;
51758;SDS011;66684;47.568;18.734;2023-06-22T08:08:23;5.85;;;2.55;;
51758;SDS011;66684;47.568;18.734;2023-06-22T08:10:49;12.85;;;3.10;;
51758;SDS011;66684;47.568;18.734;2023-06-22T08:13:15;8.63;;;2.45;;
51758;SDS011;66684;47.568;18.734;2023-06-22T08:15:40;7.70;;;2.80;;
51758;SDS011;66684;47.568;18.734;2023-06-22T08:18:06;9.40;;;2.92;;
51758;SDS011;66684;47.568;18.734;2023-06-22T08:20:32;10.88;;;2.80;;
51758;SDS011;66684;47.568;18.734;2023-06-22T08:22:58;9.35;;;2.40;;
51758;SDS011;66684;47.568;18.734;2023-06-22T08:25:32;14.93;;;3.83;;
51758;SDS011;66684;47.568;18.734;2023-06-22T08:27:59;10.05;;;2.62;;
51758;SDS011;66684;47.568;18.734;2023-06-22T08:30:26;6.93;;;2.47;;
51758;SDS011;66684;47.568;18.734;2023-06-22T08:32:52;13.20;;;2.90;;
51758;SDS011;66684;47.568;18.734;2023-06-22T08:35:19;11.48;;;2.83;;
51758;SDS011;66684;47.568;18.734;2023-06-22T08:37:46;19.12;;;3.75;;
51758;SDS011;66684;47.568;18.734;2023-06-22T08:40:18;8.93;;;3.03;;
51758;SDS011;66684;47.568;18.734;2023-06-22T08:42:45;9.65;;;3.33;;
51758;SDS011;66684;47.568;18.734;2023-06-22T08:45:12;8.07;;;3.28;;
51758;SDS011;66684;47.568;18.734;2023-06-22T08:47:39;86.07;;;6.30;;
51758;SDS011;66684;47.568;18.734;2023-06-22T08:50:07;6.70;;;3.28;;
51758;SDS011;66684;47.568;18.734;2023-06-22T08:52:37;10.82;;;3.22;;
51758;SDS011;66684;47.568;18.734;2023-06-22T08:55:05;8.98;;;3.12;;
51758;SDS011;66684;47.568;18.734;2023-06-22T08:57:31;7.32;;;2.95;;
51758;SDS011;66684;47.568;18.734;2023-06-22T08:59:58;8.00;;;3.28;;
51758;SDS011;66684;47.568;18.734;2023-06-22T09:02:25;7.32;;;3.35;;
51758;SDS011;66684;47.568;18.734;2023-06-22T09:04:51;8.55;;;3.50;;
51758;SDS011;66684;47.568;18.734;2023-06-22T09:07:21;10.50;;;4.15;;
51758;SDS011;66684;47.568;18.734;2023-06-22T09:09:49;12.52;;;3.95;;
51758;SDS011;66684;47.568;18.734;2023-06-22T09:12:15;9.20;;;4.37;;
51758;SDS011;66684;47.568;18.734;2023-06-22T09:14:41;12.98;;;4.93;;
51758;SDS011;66684;47.568;18.734;2023-06-22T09:17:06;10.40;;;4.78;;
51758;SDS011;66684;47.568;18.734;2023-06-22T09:19:32;11.73;;;5.15;;
51758;SDS011;66684;47.568;18.734;2023-06-22T09:21:58;11.23;;;5.15;;
51758;SDS011;66684;47.568;18.734;2023-06-22T09:24:25;10.23;;;5.18;;
51758;SDS011;66684;47.568;18.734;2023-06-22T09:26:51;25.00;;;6.72;;
51758;SDS011;66684;47.568;18.734;2023-06-22T09:29:17;9.48;;;5.00;;
51758;SDS011;66684;47.568;18.734;2023-06-22T09:31:43;13.70;;;5.60;;
51758;SDS011;66684;47.568;18.734;2023-06-22T09:34:09;14.80;;;6.18;;
51758;SDS011;66684;47.568;18.734;2023-06-22T09:36:35;11.88;;;5.10;;
51758;SDS011;66684;47.568;18.734;2023-06-22T09:39:02;12.25;;;4.90;;
51758;SDS011;66684;47.568;18.734;2023-06-22T09:41:31;14.23;;;5.72;;
51758;SDS011;66684;47.568;18.734;2023-06-22T09:43:57;8.75;;;5.50;;
51758;SDS011;66684;47.568;18.734;2023-06-22T09:46:23;8.32;;;5.53;;
51758;SDS011;66684;47.568;18.734;2023-06-22T09:48:52;9.95;;;5.80;;
51758;SDS011;66684;47.568;18.734;2023-06-22T09:51:18;14.95;;;5.93;;
51758;SDS011;66684;47.568;18.734;2023-06-22T09:53:45;13.43;;;5.60;;
51758;SDS011;66684;47.568;18.734;2023-06-22T09:56:11;12.13;;;6.40;;
51758;SDS011;66684;47.568;18.734;2023-06-22T09:58:44;9.82;;;5.40;;
51758;SDS011;66684;47.568;18.734;2023-06-22T10:01:11;11.13;;;6.07;;
51758;SDS011;66684;47.568;18.734;2023-06-22T10:03:37;29.95;;;6.68;;
51758;SDS011;66684;47.568;18.734;2023-06-22T10:06:03;8.93;;;6.00;;
51758;SDS011;66684;47.568;18.734;2023-06-22T10:08:29;8.73;;;5.68;;
51758;SDS011;66684;47.568;18.734;2023-06-22T10:10:56;12.10;;;5.95;;
51758;SDS011;66684;47.568;18.734;2023-06-22T10:13:21;10.02;;;6.15;;
51758;SDS011;66684;47.568;18.734;2023-06-22T10:15:47;12.45;;;6.60;;
51758;SDS011;66684;47.568;18.734;2023-06-22T10:18:16;10.25;;;6.18;;
51758;SDS011;66684;47.568;18.734;2023-06-22T10:20:47;15.85;;;6.22;;
51758;SDS011;66684;47.568;18.734;2023-06-22T10:23:13;8.68;;;6.18;;
51758;SDS011;66684;47.568;18.734;2023-06-22T10:25:40;10.80;;;6.82;;
51758;SDS011;66684;47.568;18.734;2023-06-22T10:28:06;9.88;;;6.47;;
51758;SDS011;66684;47.568;18.734;2023-06-22T10:30:32;10.90;;;6.12;;
51758;SDS011;66684;47.568;18.734;2023-06-22T10:32:58;13.15;;;7.05;;
51758;SDS011;66684;47.568;18.734;2023-06-22T10:35:24;11.82;;;6.95;;
51758;SDS011;66684;47.568;18.734;2023-06-22T10:37:50;12.35;;;6.68;;
51758;SDS011;66684;47.568;18.734;2023-06-22T10:40:16;12.02;;;6.62;;
51758;SDS011;66684;47.568;18.734;2023-06-22T10:42:44;9.63;;;6.28;;
51758;SDS011;66684;47.568;18.734;2023-06-22T10:45:10;12.32;;;6.35;;
51758;SDS011;66684;47.568;18.734;2023-06-22T10:47:36;8.88;;;6.40;;
51758;SDS011;66684;47.568;18.734;2023-06-22T10:50:03;8.80;;;6.22;;
51758;SDS011;66684;47.568;18.734;2023-06-22T10:52:29;11.57;;;6.20;;
51758;SDS011;66684;47.568;18.734;2023-06-22T10:54:55;9.52;;;6.60;;
51758;SDS011;66684;47.568;18.734;2023-06-22T10:57:21;11.43;;;6.50;;
51758;SDS011;66684;47.568;18.734;2023-06-22T10:59:47;9.57;;;6.32;;
51758;SDS011;66684;47.568;18.734;2023-06-22T11:02:13;8.85;;;6.12;;
51758;SDS011;66684;47.568;18.734;2023-06-22T11:04:39;15.70;;;6.28;;
51758;SDS011;66684;47.568;18.734;2023-06-22T11:07:05;12.32;;;5.93;;
51758;SDS011;66684;47.568;18.734;2023-06-22T11:09:31;12.57;;;5.10;;
51758;SDS011;66684;47.568;18.734;2023-06-22T11:11:57;10.82;;;5.50;;
51758;SDS011;66684;47.568;18.734;2023-06-22T11:14:24;10.43;;;4.87;;
51758;SDS011;66684;47.568;18.734;2023-06-22T11:16:50;10.52;;;5.62;;
51758;SDS011;66684;47.568;18.734;2023-06-22T11:19:17;8.00;;;5.20;;
51758;SDS011;66684;47.568;18.734;2023-06-22T11:21:43;11.90;;;5.15;;
51758;SDS011;66684;47.568;18.734;2023-06-22T11:24:09;10.45;;;5.57;;
51758;SDS011;66684;47.568;18.734;2023-06-22T11:26:35;6.22;;;4.72;;
51758;SDS011;66684;47.568;18.734;2023-06-22T11:29:02;12.52;;;4.97;;
51758;SDS011;66684;47.568;18.734;2023-06-22T11:31:31;13.40;;;5.45;;
51758;SDS011;66684;47.568;18.734;2023-06-22T11:33:58;12.88;;;5.00;;
51758;SDS011;66684;47.568;18.734;2023-06-22T11:36:24;11.32;;;5.18;;
51758;SDS011;66684;47.568;18.734;2023-06-22T11:38:50;8.55;;;5.12;;
51758;SDS011;66684;47.568;18.734;2023-06-22T11:41:17;6.80;;;4.78;;
51758;SDS011;66684;47.568;18.734;2023-06-22T11:43:44;10.98;;;5.57;;
51758;SDS011;66684;47.568;18.734;2023-06-22T11:46:10;7.65;;;4.75;;
51758;SDS011;66684;47.568;18.734;2023-06-22T11:48:36;7.80;;;4.78;;
51758;SDS011;66684;47.568;18.734;2023-06-22T11:51:02;9.68;;;5.10;;
51758;SDS011;66684;47.568;18.734;2023-06-22T11:53:28;8.73;;;4.85;;
51758;SDS011;66684;47.568;18.734;2023-06-22T11:55:58;8.93;;;4.90;;
51758;SDS011;66684;47.568;18.734;2023-06-22T11:58:25;10.38;;;4.62;;
51758;SDS011;66684;47.568;18.734;2023-06-22T12:00:51;9.07;;;4.68;;
51758;SDS011;66684;47.568;18.734;2023-06-22T12:03:17;7.80;;;4.55;;
51758;SDS011;66684;47.568;18.734;2023-06-22T12:05:44;11.80;;;5.15;;
51758;SDS011;66684;47.568;18.734;2023-06-22T12:08:09;11.48;;;4.80;;
51758;SDS011;66684;47.568;18.734;2023-06-22T12:10:35;9.18;;;4.30;;
51758;SDS011;66684;47.568;18.734;2023-06-22T12:13:01;8.40;;;4.00;;
51758;SDS011;66684;47.568;18.734;2023-06-22T12:15:27;12.85;;;4.30;;
51758;SDS011;66684;47.568;18.734;2023-06-22T12:17:53;13.32;;;4.90;;
51758;SDS011;66684;47.568;18.734;2023-06-22T12:20:19;8.75;;;5.20;;
51758;SDS011;66684;47.568;18.734;2023-06-22T12:22:45;10.90;;;5.10;;
51758;SDS011;66684;47.568;18.734;2023-06-22T12:25:11;9.43;;;4.10;;
51758;SDS011;66684;47.568;18.734;2023-06-22T12:27:37;10.85;;;4.85;;
51758;SDS011;66684;47.568;18.734;2023-06-22T12:30:03;7.18;;;4.72;;
51758;SDS011;66684;47.568;18.734;2023-06-22T12:32:30;7.97;;;5.03;;
51758;SDS011;66684;47.568;18.734;2023-06-22T12:34:56;10.50;;;5.30;;
51758;SDS011;66684;47.568;18.734;2023-06-22T12:37:22;11.65;;;5.18;;
51758;SDS011;66684;47.568;18.734;2023-06-22T12:39:48;9.55;;;5.00;;
51758;SDS011;66684;47.568;18.734;2023-06-22T12:42:15;11.30;;;4.82;;
51758;SDS011;66684;47.568;18.734;2023-06-22T12:44:41;11.40;;;4.95;;
51758;SDS011;66684;47.568;18.734;2023-06-22T12:47:08;10.35;;;4.85;;
51758;SDS011;66684;47.568;18.734;2023-06-22T12:49:37;8.70;;;4.53;;
51758;SDS011;66684;47.568;18.734;2023-06-22T12:52:08;12.10;;;5.70;;
51758;SDS011;66684;47.568;18.734;2023-06-22T12:54:34;10.38;;;5.12;;
51758;SDS011;66684;47.568;18.734;2023-06-22T12:57:01;8.73;;;5.18;;
51758;SDS011;66684;47.568;18.734;2023-06-22T12:59:27;10.13;;;5.20;;
51758;SDS011;66684;47.568;18.734;2023-06-22T13:01:53;13.10;;;5.47;;
51758;SDS011;66684;47.568;18.734;2023-06-22T13:04:18;11.88;;;5.35;;
51758;SDS011;66684;47.568;18.734;2023-06-22T13:06:45;11.75;;;5.25;;
51758;SDS011;66684;47.568;18.734;2023-06-22T13:09:17;12.82;;;6.03;;
51758;SDS011;66684;47.568;18.734;2023-06-22T13:11:44;13.27;;;5.25;;
51758;SDS011;66684;47.568;18.734;2023-06-22T13:14:10;13.57;;;5.82;;
51758;SDS011;66684;47.568;18.734;2023-06-22T13:16:36;12.00;;;5.75;;
51758;SDS011;66684;47.568;18.734;2023-06-22T13:19:02;10.73;;;6.30;;
51758;SDS011;66684;47.568;18.734;2023-06-22T13:21:28;12.50;;;6.22;;
51758;SDS011;66684;47.568;18.734;2023-06-22T13:23:55;10.20;;;6.05;;
51758;SDS011;66684;47.568;18.734;2023-06-22T13:26:21;12.23;;;6.53;;
51758;SDS011;66684;47.568;18.734;2023-06-22T13:28:47;10.40;;;6.28;;
51758;SDS011;66684;47.568;18.734;2023-06-22T13:31:13;11.38;;;6.45;;
51758;SDS011;66684;47.568;18.734;2023-06-22T13:33:39;10.50;;;6.28;;
51758;SDS011;66684;47.568;18.734;2023-06-22T13:36:06;11.63;;;7.07;;
51758;SDS011;66684;47.568;18.734;2023-06-22T13:38:35;13.68;;;6.25;;
51758;SDS011;66684;47.568;18.734;2023-06-22T13:41:04;17.05;;;6.85;;
51758;SDS011;66684;47.568;18.734;2023-06-22T13:43:30;23.75;;;6.93;;
51758;SDS011;66684;47.568;18.734;2023-06-22T13:45:56;9.20;;;6.65;;
51758;SDS011;66684;47.568;18.734;2023-06-22T13:48:22;14.00;;;6.55;;
51758;SDS011;66684;47.568;18.734;2023-06-22T13:50:49;15.93;;;7.18;;
51758;SDS011;66684;47.568;18.734;2023-06-22T13:53:15;9.43;;;6.70;;
51758;SDS011;66684;47.568;18.734;2023-06-22T13:55:41;12.35;;;6.55;;
51758;SDS011;66684;47.568;18.734;2023-06-22T13:58:06;9.63;;;6.87;;
51758;SDS011;66684;47.568;18.734;2023-06-22T14:00:32;12.75;;;7.60;;
51758;SDS011;66684;47.568;18.734;2023-06-22T14:02:58;13.07;;;7.20;;
51758;SDS011;66684;47.568;18.734;2023-06-22T14:05:24;11.00;;;7.12;;
51758;SDS011;66684;47.568;18.734;2023-06-22T14:07:50;12.13;;;7.68;;
51758;SDS011;66684;47.568;18.734;2023-06-22T14:10:16;10.90;;;7.25;;
51758;SDS011;66684;47.568;18.734;2023-06-22T14:12:42;14.13;;;6.82;;
51758;SDS011;66684;47.568;18.734;2023-06-22T14:15:08;15.57;;;7.05;;
51758;SDS011;66684;47.568;18.734;2023-06-22T14:17:34;11.40;;;6.85;;
51758;SDS011;66684;47.568;18.734;2023-06-22T14:20:00;12.45;;;7.03;;
51758;SDS011;66684;47.568;18.734;2023-06-22T14:22:26;12.88;;;7.10;;
51758;SDS011;66684;47.568;18.734;2023-06-22T14:24:54;11.98;;;7.40;;
51758;SDS011;66684;47.568;18.734;2023-06-22T14:27:23;10.70;;;7.40;;
51758;SDS011;66684;47.568;18.734;2023-06-22T14:29:49;16.15;;;7.97;;
51758;SDS011;66684;47.568;18.734;2023-06-22T14:32:14;13.20;;;7.22;;
51758;SDS011;66684;47.568;18.734;2023-06-22T14:34:40;11.88;;;7.78;;
51758;SDS011;66684;47.568;18.734;2023-06-22T14:37:06;11.15;;;7.25;;